Time;durP1;ratioP1;P1;durP2;ratioP2;P2;SDS_P1;SDS_P2;PMS_P1;PMS_P2;Temp;Humidity;BMP_temperature;BMP_pressure;BME280_temperature;BME280_humidity;BME280_pressure;Samples;Min_cycle;Max_cycle;Signal;HPM_P1;HPM_P2
2020/12/28 00:02:09;;;;;;;8.77;2.80;;;;;;;5.40;79.61;97293.03;4974367;28;20363;-64
2020/12/28 00:04:37;;;;;;;11.43;3.15;;;;;;;5.61;79.88;97290.66;4972903;28;20063;-64
2020/12/28 00:07:04;;;;;;;7.00;2.70;;;;;;;5.47;80.11;97284.94;4974005;28;20426;-66
2020/12/28 00:09:31;;;;;;;10.82;2.90;;;;;;;5.52;80.72;97284.66;4973432;28;20047;-64
2020/12/28 00:11:59;;;;;;;14.40;3.17;;;;;;;5.48;80.83;97286.53;4954829;28;20394;-64
2020/12/28 00:14:29;;;;;;;9.60;2.63;;;;;;;5.65;79.98;97283.31;4973984;28;20062;-65
2020/12/28 00:16:57;;;;;;;11.27;3.00;;;;;;;5.67;80.07;97280.22;4973329;28;20050;-65
2020/12/28 00:19:24;;;;;;;8.98;2.78;;;;;;;5.65;79.64;97277.88;4973565;28;20526;-64
2020/12/28 00:21:51;;;;;;;11.32;3.60;;;;;;;5.75;79.80;97279.19;4974213;28;20051;-64
2020/12/28 00:24:18;;;;;;;9.02;3.20;;;;;;;5.74;79.62;97281.13;4973533;28;20047;-65
2020/12/28 00:26:46;;;;;;;11.32;3.03;;;;;;;5.64;79.87;97270.03;4973319;28;20051;-66
2020/12/28 00:29:14;;;;;;;16.25;3.45;;;;;;;5.58;80.50;97275.00;4973863;28;20054;-66
2020/12/28 00:31:43;;;;;;;11.00;2.45;;;;;;;5.67;80.10;97272.81;4973661;28;20518;-64
2020/12/28 00:34:12;;;;;;;11.68;2.70;;;;;;;5.86;80.00;97277.44;4974058;28;20043;-65
2020/12/28 00:36:39;;;;;;;12.50;2.90;;;;;;;5.71;80.24;97270.16;4973683;28;20102;-65
2020/12/28 00:39:06;;;;;;;13.38;2.67;;;;;;;5.83;79.85;97278.19;4973459;28;20050;-65
2020/12/28 00:41:33;;;;;;;10.30;2.60;;;;;;;5.89;80.08;97271.28;4973418;28;20062;-65
2020/12/28 00:44:02;;;;;;;13.25;3.10;;;;;;;5.94;79.80;97281.88;4976287;28;20043;-65
2020/12/28 00:46:29;;;;;;;10.13;2.40;;;;;;;5.87;79.79;97273.56;4991580;28;20403;-64
2020/12/28 00:48:59;;;;;;;11.48;2.72;;;;;;;5.98;79.60;97269.03;4960497;28;20043;-66
2020/12/28 00:51:26;;;;;;;11.52;2.72;;;;;;;6.11;78.95;97267.69;4991919;28;20058;-65
2020/12/28 00:53:55;;;;;;;10.68;2.30;;;;;;;6.14;78.98;97257.97;4959772;28;20058;-65
2020/12/28 00:56:23;;;;;;;10.38;2.80;;;;;;;6.12;79.09;97261.06;4992484;28;20066;-65
2020/12/28 00:58:49;;;;;;;11.30;2.55;;;;;;;6.15;78.87;97252.16;4960195;28;20057;-65
2020/12/28 01:01:18;;;;;;;15.68;3.25;;;;;;;6.13;78.55;97259.94;4976596;28;20154;-65
2020/12/28 01:03:44;;;;;;;13.48;2.65;;;;;;;6.25;78.44;97242.50;4976599;28;20062;-65
2020/12/28 01:06:14;;;;;;;14.88;3.42;;;;;;;6.29;77.77;97248.81;4978438;28;20517;-65
2020/12/28 01:08:49;;;;;;;11.02;2.75;;;;;;;6.15;77.77;97246.69;4976709;28;20055;-66
2020/12/28 01:11:23;;;;;;;11.98;2.60;;;;;;;6.16;77.94;97252.91;4991556;28;20054;-66
2020/12/28 01:13:58;;;;;;;12.18;2.95;;;;;;;6.16;77.80;97245.53;4970604;28;20043;-65
2020/12/28 01:16:27;;;;;;;10.32;2.78;;;;;;;5.99;77.70;97240.59;4959930;28;20053;-63
2020/12/28 01:18:55;;;;;;;11.45;2.80;;;;;;;6.06;77.46;97235.22;4992087;28;20051;-64
2020/12/28 01:21:28;;;;;;;9.07;2.35;;;;;;;6.08;77.32;97232.94;4959636;28;20055;-66
2020/12/28 01:23:56;;;;;;;12.98;2.50;;;;;;;6.02;77.61;97233.59;4992063;28;20058;-64
2020/12/28 01:26:24;;;;;;;9.70;2.58;;;;;;;6.00;77.55;97244.13;4954752;28;20047;-64
2020/12/28 01:28:54;;;;;;;11.40;2.53;;;;;;;5.90;77.46;97229.13;4992522;28;20436;-66
2020/12/28 01:31:26;;;;;;;10.93;2.60;;;;;;;5.80;78.67;97234.41;4991803;28;20054;-64
2020/12/28 01:34:05;;;;;;;12.88;3.30;;;;;;;5.80;78.63;97224.28;4976538;28;20049;-65
2020/12/28 01:36:52;;;;;;;14.65;3.28;;;;;;;5.93;78.63;97220.19;4975502;28;20521;-65
2020/12/28 01:39:23;;;;;;;9.77;2.60;;;;;;;5.88;78.32;97219.72;4975372;28;20403;-64
2020/12/28 01:41:54;;;;;;;9.30;2.83;;;;;;;5.64;79.48;97218.16;4991622;28;20043;-65
2020/12/28 01:44:21;;;;;;;9.95;2.78;;;;;;;5.51;80.01;97220.28;4991237;28;20050;-64
2020/12/28 01:46:54;;;;;;;13.55;2.97;;;;;;;5.78;79.82;97215.66;4975284;28;20054;-64
2020/12/28 01:49:23;;;;;;;15.93;2.88;;;;;;;5.87;79.85;97220.88;4959042;28;20056;-65
2020/12/28 01:51:50;;;;;;;10.95;2.65;;;;;;;5.81;79.60;97217.66;4976144;28;20054;-67
2020/12/28 01:54:20;;;;;;;10.40;3.17;;;;;;;5.82;79.88;97211.06;4975143;28;20074;-67
2020/12/28 01:56:51;;;;;;;12.02;2.92;;;;;;;6.00;79.27;97201.19;4959466;28;20057;-66
2020/12/28 01:59:25;;;;;;;10.35;2.60;;;;;;;5.69;80.06;97209.66;4991254;28;20051;-65
2020/12/28 02:01:54;;;;;;;13.25;3.05;;;;;;;5.55;80.89;97212.97;4974729;28;20075;-66
2020/12/28 02:04:26;;;;;;;12.98;2.90;;;;;;;5.62;81.16;97204.88;4972176;28;20074;-66
2020/12/28 02:07:02;;;;;;;12.75;3.03;;;;;;;5.77;80.75;97205.88;4974669;28;20367;-65
2020/12/28 02:09:31;;;;;;;12.25;3.25;;;;;;;5.61;80.73;97202.53;4990944;28;20428;-64
2020/12/28 02:11:58;;;;;;;11.98;3.45;;;;;;;5.87;80.63;97199.84;4973788;28;20055;-65
2020/12/28 02:14:28;;;;;;;10.45;3.00;;;;;;;5.85;80.17;97199.41;4973961;28;20051;-66
2020/12/28 02:17:03;;;;;;;13.80;3.08;;;;;;;6.02;79.56;97192.63;4975829;28;20054;-63
2020/12/28 02:19:33;;;;;;;23.67;3.67;;;;;;;5.96;80.09;97183.97;4990873;28;20058;-64
2020/12/28 02:22:04;;;;;;;12.82;3.50;;;;;;;5.93;80.32;97179.22;4990604;28;20062;-64
2020/12/28 02:24:41;;;;;;;13.75;3.05;;;;;;;5.94;80.49;97190.94;4990417;28;20051;-65
2020/12/28 02:27:09;;;;;;;12.10;3.22;;;;;;;5.97;79.84;97198.41;4958247;28;20051;-66
2020/12/28 02:29:36;;;;;;;11.13;3.42;;;;;;;5.86;80.35;97186.56;4990664;28;20047;-64
2020/12/28 02:32:03;;;;;;;12.95;3.70;;;;;;;5.95;80.17;97187.84;4990719;28;20410;-65
2020/12/28 02:35:04;;;;;;;17.95;3.78;;;;;;;5.89;80.14;97185.81;4946395;29;20058;-63
2020/12/28 02:37:40;;;;;;;14.30;3.60;;;;;;;5.99;79.76;97180.50;4934877;28;20055;-63
2020/12/28 02:40:07;;;;;;;9.88;3.30;;;;;;;6.12;79.63;97181.06;4935752;29;20051;-64
2020/12/28 02:42:47;;;;;;;15.02;4.28;;;;;;;5.92;80.55;97180.41;4934143;29;20064;-65
2020/12/28 02:45:35;;;;;;;14.95;3.42;;;;;;;6.09;79.81;97168.13;4935058;29;20059;-64
2020/12/28 02:48:20;;;;;;;12.75;3.63;;;;;;;6.03;80.30;97166.91;4935534;29;20055;-64
2020/12/28 02:51:13;;;;;;;13.23;3.88;;;;;;;6.21;79.66;97155.03;4925286;29;20447;-65
2020/12/28 02:53:58;;;;;;;13.23;3.40;;;;;;;6.25;79.81;97155.06;4934825;29;20055;-63
2020/12/28 02:56:43;;;;;;;14.80;3.72;;;;;;;6.21;80.46;97154.22;4934408;29;20055;-64
2020/12/28 02:59:29;;;;;;;17.27;3.53;;;;;;;6.22;80.01;97159.34;4934613;29;20051;-64
2020/12/28 03:06:42;;;;;;;12.63;3.42;;;;;;;6.45;79.46;97143.59;4932793;29;20052;-64
2020/12/28 03:09:27;;;;;;;15.30;3.47;;;;;;;6.46;79.39;97136.19;4934141;29;20055;-65
2020/12/28 03:12:13;;;;;;;9.93;3.03;;;;;;;6.50;79.46;97131.56;4974955;28;20422;-67
2020/12/28 03:14:59;;;;;;;17.55;3.58;;;;;;;6.32;79.96;97125.09;4974994;28;20047;-67
2020/12/28 03:22:23;;;;;;;20.10;3.58;;;;;;;6.63;79.21;97125.47;4972026;28;20047;-65
2020/12/28 03:25:08;;;;;;;11.80;3.15;;;;;;;6.51;79.31;97124.94;4971978;28;20051;-66
2020/12/28 03:27:53;;;;;;;16.80;3.55;;;;;;;6.45;79.32;97124.47;4972278;28;20063;-66
2020/12/28 03:30:39;;;;;;;11.20;3.25;;;;;;;6.62;78.54;97129.38;4971987;28;20055;-66
2020/12/28 03:37:54;;;;;;;13.35;3.50;;;;;;;6.67;77.61;97118.09;4972554;28;20042;-64
2020/12/28 03:40:39;;;;;;;15.35;3.08;;;;;;;6.51;78.16;97109.31;4972090;28;20063;-64
2020/12/28 03:43:25;;;;;;;11.68;2.75;;;;;;;6.54;78.32;97114.03;4958559;28;20051;-64
2020/12/28 03:46:10;;;;;;;12.15;2.72;;;;;;;6.67;77.91;97104.41;4971933;28;20538;-64
2020/12/28 03:49:59;;;;;;;13.18;3.25;;;;;;;6.57;77.48;97105.06;4970940;28;20055;-65
2020/12/28 03:52:45;;;;;;;12.70;2.72;;;;;;;6.54;77.52;97097.63;4952320;29;20071;-63
2020/12/28 03:55:30;;;;;;;9.32;2.60;;;;;;;6.68;76.62;97081.38;4952325;29;20055;-65
2020/12/28 03:58:18;;;;;;;8.55;2.80;;;;;;;6.80;76.46;97091.22;4952644;29;20051;-66
2020/12/28 04:01:06;;;;;;;13.13;2.80;;;;;;;6.68;76.16;97089.56;4954642;29;20054;-64
2020/12/28 04:08:18;;;;;;;13.85;3.58;;;;;;;6.65;76.29;97097.72;4954427;29;20055;-67
2020/12/28 04:11:20;;;;;;;13.40;2.42;;;;;;;6.66;76.43;97091.09;4954620;29;20510;-65
2020/12/28 04:13:59;;;;;;;8.73;1.90;;;;;;;6.70;76.10;97089.19;4953817;28;20043;-64
2020/12/28 04:16:26;;;;;;;9.43;2.63;;;;;;;6.66;76.03;97082.88;4954754;29;20047;-64
2020/12/28 04:23:22;;;;;;;13.25;2.42;;;;;;;6.75;75.50;97062.28;4957570;29;20062;-65
2020/12/28 04:25:48;;;;;;;11.00;2.30;;;;;;;6.69;75.69;97068.50;4958366;29;20203;-64
2020/12/28 04:28:16;;;;;;;10.68;2.47;;;;;;;6.66;76.46;97063.75;4958723;29;20051;-65
2020/12/28 04:30:43;;;;;;;5.32;2.00;;;;;;;6.78;75.42;97067.00;4958675;28;20506;-64
2020/12/28 04:37:59;;;;;;;13.27;2.58;;;;;;;6.78;75.61;97047.84;4958321;29;20403;-64
2020/12/28 04:40:26;;;;;;;9.13;2.05;;;;;;;6.64;76.44;97057.91;4958494;28;20062;-65
2020/12/28 04:42:55;;;;;;;10.70;2.50;;;;;;;6.44;76.57;97054.56;4958275;29;20047;-67
2020/12/28 04:45:22;;;;;;;8.73;2.20;;;;;;;6.64;76.51;97058.66;4958010;29;20109;-66
2020/12/28 04:47:49;;;;;;;9.40;2.42;;;;;;;6.59;76.83;97056.28;4957908;29;20058;-64
2020/12/28 04:50:16;;;;;;;10.10;1.92;;;;;;;6.69;76.23;97065.75;4943260;28;20066;-65
2020/12/28 04:53:03;;;;;;;7.70;1.90;;;;;;;6.66;76.00;97070.00;4991388;28;20078;-67
2020/12/28 04:55:31;;;;;;;9.70;1.77;;;;;;;6.64;76.21;97063.38;4977384;28;20054;-64
2020/12/28 04:57:58;;;;;;;6.75;1.65;;;;;;;6.79;76.12;97063.13;4977041;28;20069;-66
2020/12/28 05:00:26;;;;;;;7.30;1.48;;;;;;;6.66;76.14;97063.75;4977107;28;20062;-65
2020/12/28 05:02:53;;;;;;;6.47;2.15;;;;;;;6.75;76.32;97064.22;4977412;28;20375;-66
2020/12/28 05:05:19;;;;;;;7.00;1.52;;;;;;;6.80;75.60;97061.94;4977244;28;20059;-65
2020/12/28 05:07:50;;;;;;;8.20;1.77;;;;;;;6.56;76.56;97070.69;4976928;28;20517;-65
2020/12/28 05:10:23;;;;;;;;;;;;;;;6.67;75.96;97065.34;4977206;28;20391;-65
2020/12/28 05:12:50;;;;;;;5.43;1.80;;;;;;;6.52;76.60;97069.09;4975732;28;19929;-65
2020/12/28 05:15:17;;;;;;;6.38;1.45;;;;;;;6.45;76.76;97069.81;4976855;28;20055;-64
2020/12/28 05:17:54;;;;;;;5.20;1.25;;;;;;;6.52;76.46;97060.91;4975765;28;20407;-65
2020/12/28 05:20:24;;;;;;;7.28;1.80;;;;;;;6.56;76.34;97062.50;4977228;28;20059;-66
2020/12/28 05:22:54;;;;;;;3.88;1.38;;;;;;;6.61;76.04;97064.88;4976638;28;20046;-66
2020/12/28 05:25:26;;;;;;;5.78;1.65;;;;;;;6.83;75.39;97063.91;4959534;28;20054;-65
2020/12/28 05:27:53;;;;;;;6.68;1.27;;;;;;;6.90;74.59;97059.69;4976842;28;20051;-65
2020/12/28 05:30:20;;;;;;;11.18;1.90;;;;;;;6.68;75.33;97056.75;4975510;28;20055;-65
2020/12/28 05:32:48;;;;;;;6.10;1.60;;;;;;;6.82;74.99;97047.88;4976528;28;20502;-66
2020/12/28 05:35:15;;;;;;;4.32;1.45;;;;;;;6.59;75.96;97066.44;4976662;28;20055;-65
2020/12/28 05:37:46;;;;;;;6.95;1.95;;;;;;;6.66;75.95;97061.00;4976333;28;20391;-65
2020/12/28 05:40:13;;;;;;;9.27;1.45;;;;;;;6.62;76.16;97069.22;4976539;28;20051;-64
2020/12/28 05:42:50;;;;;;;5.18;1.48;;;;;;;6.74;75.90;97070.88;4975107;28;20059;-65
2020/12/28 05:45:17;;;;;;;6.07;1.23;;;;;;;6.81;75.35;97071.72;4976422;28;20047;-65
2020/12/28 05:47:53;;;;;;;5.90;1.50;;;;;;;6.85;74.76;97061.59;4958943;28;20062;-65
2020/12/28 05:50:24;;;;;;;5.07;1.35;;;;;;;6.72;76.35;97065.00;4975605;28;20059;-66
2020/12/28 05:52:54;;;;;;;6.82;2.00;;;;;;;6.75;75.73;97065.03;4976057;28;20055;-67
2020/12/28 05:55:23;;;;;;;4.95;1.42;;;;;;;6.58;76.43;97071.13;4976240;28;20474;-65
2020/12/28 05:57:50;;;;;;;4.68;1.45;;;;;;;6.60;76.92;97062.53;4975288;28;20128;-65
2020/12/28 06:00:18;;;;;;;9.13;1.70;;;;;;;6.65;76.87;97059.47;4976779;28;20491;-65
2020/12/28 06:02:45;;;;;;;10.30;1.70;;;;;;;6.61;76.99;97062.16;4976363;28;20058;-65
2020/12/28 06:05:14;;;;;;;6.57;1.58;;;;;;;6.47;77.86;97061.22;4977812;28;20051;-66
2020/12/28 06:07:42;;;;;;;7.50;1.75;;;;;;;6.44;77.53;97062.78;4976965;28;20051;-65
2020/12/28 06:10:10;;;;;;;5.30;1.75;;;;;;;6.56;76.83;97062.50;4976041;28;20054;-66
2020/12/28 06:12:38;;;;;;;6.05;1.88;;;;;;;6.52;76.94;97075.34;4991132;28;20055;-65
2020/12/28 06:15:20;;;;;;;8.25;1.63;;;;;;;6.58;76.83;97070.31;4976343;28;20058;-64
2020/12/28 06:17:47;;;;;;;4.18;1.70;;;;;;;6.59;76.48;97071.91;4976030;28;20055;-65
2020/12/28 06:20:14;;;;;;;5.72;1.88;;;;;;;6.40;77.33;97081.06;4975716;28;20054;-65
2020/12/28 06:22:42;;;;;;;5.93;1.60;;;;;;;6.47;76.70;97080.34;4975869;28;20050;-65
2020/12/28 06:25:14;;;;;;;5.20;1.42;;;;;;;6.49;77.19;97084.28;4975494;28;20518;-63
2020/12/28 06:27:43;;;;;;;9.68;1.70;;;;;;;6.58;77.08;97090.25;4975574;28;20070;-65
2020/12/28 06:30:17;;;;;;;9.63;1.70;;;;;;;6.64;76.67;97096.94;4976030;28;20054;-64
2020/12/28 06:32:49;;;;;;;6.30;1.73;;;;;;;6.70;76.21;97087.25;4975685;28;20051;-63
2020/12/28 06:35:17;;;;;;;9.02;1.92;;;;;;;6.69;76.34;97091.13;4975243;28;20510;-64
2020/12/28 06:37:50;;;;;;;5.47;1.60;;;;;;;6.71;76.88;97091.53;4975285;28;20051;-66
2020/12/28 06:40:29;;;;;;;5.15;1.52;;;;;;;6.52;77.59;97093.72;4975143;28;20387;-64
2020/12/28 06:43:09;;;;;;;6.03;1.52;;;;;;;6.42;78.04;97091.63;4975445;28;20054;-63
2020/12/28 06:45:40;;;;;;;6.85;1.75;;;;;;;6.55;76.69;97095.69;4974831;28;20059;-66
2020/12/28 06:48:17;;;;;;;5.63;1.60;;;;;;;6.56;76.16;97094.50;4974896;28;20047;-64
2020/12/28 06:50:48;;;;;;;6.85;1.63;;;;;;;6.63;76.04;97097.31;4975243;28;20066;-65
2020/12/28 06:53:25;;;;;;;5.97;1.45;;;;;;;6.65;75.79;97097.72;4975457;28;20050;-66
2020/12/28 06:55:54;;;;;;;5.50;1.35;;;;;;;6.70;75.97;97102.88;4975123;28;20403;-65
2020/12/28 06:58:25;;;;;;;5.82;1.20;;;;;;;6.54;75.92;97102.31;4973108;28;20401;-68
2020/12/28 07:00:59;;;;;;;3.70;1.20;;;;;;;6.58;76.41;97103.94;4974800;28;20051;-67
2020/12/28 07:03:26;;;;;;;6.88;1.88;;;;;;;6.65;76.17;97100.47;4973940;28;20065;-64
2020/12/28 07:06:01;;;;;;;8.77;1.60;;;;;;;6.77;75.85;97100.19;4989624;28;20495;-67
2020/12/28 07:08:28;;;;;;;4.25;1.42;;;;;;;6.79;75.38;97108.81;4975680;28;20170;-65
2020/12/28 07:10:57;;;;;;;5.82;1.73;;;;;;;6.63;75.69;97109.06;4975106;28;20051;-66
2020/12/28 07:13:24;;;;;;;4.05;1.30;;;;;;;6.79;75.23;97117.81;4975192;28;20047;-65
2020/12/28 07:15:59;;;;;;;7.95;1.30;;;;;;;6.72;74.59;97122.41;4975028;28;20058;-66
2020/12/28 07:18:26;;;;;;;6.22;1.40;;;;;;;6.62;74.84;97125.84;4974789;28;20054;-69
2020/12/28 07:20:58;;;;;;;5.03;1.50;;;;;;;6.53;75.35;97122.59;4974739;28;20136;-66
2020/12/28 07:23:32;;;;;;;6.78;1.60;;;;;;;6.69;75.25;97123.19;4974597;28;20055;-65
2020/12/28 07:26:09;;;;;;;4.38;1.00;;;;;;;6.64;74.55;97124.28;4974442;28;20054;-66
2020/12/28 07:28:38;;;;;;;7.22;1.20;;;;;;;6.65;74.84;97120.41;4974617;28;20047;-64
2020/12/28 07:31:06;;;;;;;7.15;1.33;;;;;;;6.81;74.12;97120.97;4974499;28;20368;-66
2020/12/28 07:33:33;;;;;;;5.65;1.33;;;;;;;6.72;73.56;97125.16;4974900;28;20062;-66
2020/12/28 07:36:09;;;;;;;3.60;1.08;;;;;;;6.85;73.23;97127.25;4973899;28;20050;-64
2020/12/28 07:38:36;;;;;;;5.78;1.30;;;;;;;6.81;73.57;97134.66;4974390;28;20047;-65
2020/12/28 07:41:05;;;;;;;2.13;1.27;;;;;;;6.88;73.03;97135.84;4974286;28;20430;-65
2020/12/28 07:43:32;;;;;;;3.28;1.00;;;;;;;6.96;72.66;97151.19;4974425;28;20306;-66
2020/12/28 07:46:08;;;;;;;4.53;1.13;;;;;;;6.88;72.71;97149.53;4974091;28;20058;-65
2020/12/28 07:48:36;;;;;;;2.47;0.90;;;;;;;6.75;72.14;97158.00;4972481;28;20051;-65
2020/12/28 07:51:06;;;;;;;2.47;0.75;;;;;;;6.55;72.53;97158.56;4988645;28;20490;-67
2020/12/28 07:53:40;;;;;;;5.97;1.10;;;;;;;6.44;73.27;97157.66;4972792;28;20054;-65
2020/12/28 07:56:09;;;;;;;5.97;1.10;;;;;;;6.48;72.94;97158.47;4973230;28;20058;-67
2020/12/28 07:59:00;;;;;;;3.37;1.00;;;;;;;6.72;73.16;97150.56;5005187;28;20503;-65
2020/12/28 08:01:47;;;;;;;11.55;4.50;;;;;;;6.71;72.17;97157.19;4974035;28;20047;-64
2020/12/28 08:04:18;;;;;;;4.20;1.20;;;;;;;6.78;71.62;97151.78;4973061;28;20375;-66
2020/12/28 08:06:46;;;;;;;3.47;1.20;;;;;;;6.60;72.07;97159.03;4974059;28;20407;-65
2020/12/28 08:09:13;;;;;;;6.93;1.13;;;;;;;6.55;71.83;97147.63;4973340;28;20050;-65
2020/12/28 08:11:41;;;;;;;5.53;0.63;;;;;;;6.50;72.43;97139.78;4988493;28;20062;-65
2020/12/28 08:14:09;;;;;;;2.05;0.90;;;;;;;6.51;72.38;97157.72;4974001;28;20489;-66
2020/12/28 08:16:37;;;;;;;4.45;0.90;;;;;;;6.60;71.82;97158.22;4973785;28;20525;-65
2020/12/28 08:19:05;;;;;;;7.07;1.30;;;;;;;6.47;71.64;97157.69;4974108;28;20039;-65
2020/12/28 08:21:41;;;;;;;5.78;0.93;;;;;;;6.49;72.38;97166.31;4974113;28;20054;-65
2020/12/28 08:24:17;;;;;;;3.22;0.88;;;;;;;6.37;72.88;97163.03;4988570;28;20042;-66
2020/12/28 08:26:44;;;;;;;2.40;0.95;;;;;;;6.51;71.54;97165.94;4973435;28;20047;-66
2020/12/28 08:29:11;;;;;;;3.00;0.90;;;;;;;6.53;72.05;97169.88;4956399;28;20051;-66
2020/12/28 08:31:39;;;;;;;4.07;0.88;;;;;;;6.55;71.89;97162.09;4973715;28;20051;-64
2020/12/28 08:34:13;;;;;;;5.03;1.15;;;;;;;6.51;72.22;97160.47;4973559;28;20452;-66
2020/12/28 08:36:54;;;;;;;4.85;1.50;;;;;;;6.62;72.20;97153.97;4973956;28;20061;-65
2020/12/28 08:39:24;;;;;;;3.50;1.40;;;;;;;6.58;72.24;97153.13;4973770;28;20047;-66
2020/12/28 08:41:58;;;;;;;6.55;1.52;;;;;;;6.55;72.46;97164.03;4971805;28;20055;-65
2020/12/28 08:44:33;;;;;;;7.30;1.20;;;;;;;6.57;72.54;97167.19;4972973;28;20491;-65
2020/12/28 08:47:11;;;;;;;3.33;0.80;;;;;;;6.50;72.33;97173.34;4971947;28;20388;-65
2020/12/28 08:49:40;;;;;;;2.65;0.90;;;;;;;6.73;71.96;97182.22;4973811;28;20399;-65
2020/12/28 08:52:12;;;;;;;3.00;0.90;;;;;;;6.71;71.71;97189.22;4973332;28;20054;-69
2020/12/28 08:54:39;;;;;;;2.92;0.93;;;;;;;6.59;71.41;97187.50;4972797;28;20388;-65
2020/12/28 08:57:06;;;;;;;3.50;0.70;;;;;;;6.50;72.35;97195.22;4972825;28;20383;-63
2020/12/28 08:59:33;;;;;;;2.17;0.88;;;;;;;6.45;72.24;97200.25;4988377;28;20506;-64
2020/12/28 09:02:00;;;;;;;3.08;0.80;;;;;;;6.58;72.45;97201.56;4973656;28;20513;-64
2020/12/28 09:04:27;;;;;;;4.82;1.13;;;;;;;6.51;71.64;97223.34;4974844;28;20062;-65
2020/12/28 09:06:54;;;;;;;2.50;1.00;;;;;;;6.46;71.13;97221.72;4974458;28;20055;-66
2020/12/28 09:09:21;;;;;;;2.58;0.80;;;;;;;6.54;71.52;97222.59;4959679;28;20059;-64
2020/12/28 09:11:47;;;;;;;4.45;1.30;;;;;;;6.52;71.02;97224.94;4976875;28;20050;-64
2020/12/28 09:14:14;;;;;;;3.40;0.95;;;;;;;6.49;70.86;97231.13;4977072;28;20054;-63
2020/12/28 09:16:41;;;;;;;5.25;1.17;;;;;;;6.22;71.03;97248.72;4976787;28;20062;-63
2020/12/28 09:19:08;;;;;;;5.22;1.00;;;;;;;6.40;71.48;97228.66;4976583;28;20050;-67
2020/12/28 09:21:35;;;;;;;4.20;1.00;;;;;;;5.97;71.51;97231.97;4973792;28;20122;-65
2020/12/28 09:24:02;;;;;;;10.65;0.95;;;;;;;6.04;71.41;97243.00;4976289;28;20054;-65
2020/12/28 09:26:32;;;;;;;4.63;0.90;;;;;;;6.23;71.47;97240.16;4976841;28;20083;-62
2020/12/28 09:29:04;;;;;;;5.97;1.10;;;;;;;6.23;70.86;97244.81;4959481;28;20054;-64
2020/12/28 09:31:31;;;;;;;4.70;1.20;;;;;;;6.12;70.68;97252.88;4976478;28;20482;-66
2020/12/28 09:33:58;;;;;;;5.13;1.10;;;;;;;6.26;70.33;97252.31;4976709;28;20491;-64
2020/12/28 09:36:25;;;;;;;7.55;1.17;;;;;;;6.33;69.68;97238.75;4976730;28;20255;-66
2020/12/28 09:38:53;;;;;;;5.65;1.30;;;;;;;6.34;70.45;97237.56;4976721;28;20506;-66
2020/12/28 09:41:20;;;;;;;4.57;1.00;;;;;;;6.26;70.34;97242.16;4976819;28;20051;-64
2020/12/28 09:43:47;;;;;;;5.18;1.70;;;;;;;6.37;69.95;97239.56;4975745;28;20055;-70
2020/12/28 09:46:19;;;;;;;5.43;1.92;;;;;;;6.17;70.02;97235.38;4959634;28;20407;-65
2020/12/28 09:48:47;;;;;;;5.85;2.47;;;;;;;6.15;70.30;97234.97;4976392;28;20517;-66
2020/12/28 09:51:15;;;;;;;7.68;2.33;;;;;;;6.13;70.34;97237.28;4976068;28;20047;-64
2020/12/28 09:53:44;;;;;;;5.68;1.50;;;;;;;6.34;69.67;97248.50;4976225;28;20046;-65
2020/12/28 09:56:27;;;;;;;6.25;1.30;;;;;;;6.25;69.94;97243.31;4975754;28;20059;-64
2020/12/28 09:58:54;;;;;;;6.95;1.80;;;;;;;6.44;69.29;97245.13;4975371;28;20062;-65
2020/12/28 10:01:21;;;;;;;5.35;1.90;;;;;;;6.53;68.75;97245.63;4975521;28;20486;-65
2020/12/28 10:03:48;;;;;;;7.75;2.15;;;;;;;6.26;69.89;97244.09;4958153;28;20058;-70
2020/12/28 10:06:31;;;;;;;6.97;1.30;;;;;;;6.37;69.60;97245.81;4973717;28;20047;-70
2020/12/28 10:08:59;;;;;;;5.35;1.10;;;;;;;6.41;69.85;97229.47;4989851;28;20454;-64
2020/12/28 10:11:27;;;;;;;4.93;1.23;;;;;;;6.77;68.79;97226.81;4974956;28;20043;-66
2020/12/28 10:13:54;;;;;;;4.85;1.88;;;;;;;6.78;68.18;97222.13;4975427;28;20047;-65
2020/12/28 10:16:25;;;;;;;6.75;2.08;;;;;;;6.67;68.24;97215.72;4974076;28;20042;-66
2020/12/28 10:18:54;;;;;;;4.57;1.27;;;;;;;6.52;68.85;97214.75;4973376;28;20047;-66
2020/12/28 10:21:22;;;;;;;5.05;1.40;;;;;;;6.85;68.75;97211.25;4975174;28;20402;-64
2020/12/28 10:23:50;;;;;;;7.38;1.00;;;;;;;6.88;68.11;97193.31;4975242;28;20054;-66
2020/12/28 10:26:27;;;;;;;5.85;1.20;;;;;;;6.93;68.24;97192.97;4990032;28;20379;-66
2020/12/28 10:28:56;;;;;;;5.72;1.33;;;;;;;7.20;67.90;97189.72;4975675;28;20077;-67
2020/12/28 10:31:23;;;;;;;4.95;1.20;;;;;;;7.11;66.63;97188.47;4975430;28;20062;-66
2020/12/28 10:33:54;;;;;;;6.13;1.30;;;;;;;7.03;67.28;97173.13;4958515;28;20054;-64
2020/12/28 10:36:27;;;;;;;9.10;1.50;;;;;;;7.28;66.72;97185.91;4975400;28;20061;-65
2020/12/28 10:38:57;;;;;;;5.43;1.40;;;;;;;7.31;66.33;97178.88;4989625;28;20055;-66
2020/12/28 10:41:29;;;;;;;11.32;2.53;;;;;;;6.97;67.36;97172.69;4974607;28;20055;-65
2020/12/28 10:43:57;;;;;;;10.70;2.42;;;;;;;7.29;67.04;97167.50;4974265;28;20050;-65
2020/12/28 10:46:26;;;;;;;7.05;2.00;;;;;;;7.30;66.52;97171.84;4972903;28;20078;-65
2020/12/28 10:49:04;;;;;;;7.78;1.42;;;;;;;7.40;66.07;97163.72;4973714;28;20055;-65
2020/12/28 10:51:31;;;;;;;10.23;1.92;;;;;;;7.23;65.82;97163.56;4974696;28;20495;-64
2020/12/28 10:53:58;;;;;;;8.15;1.70;;;;;;;7.23;66.22;97160.81;4973066;28;20062;-65
2020/12/28 10:56:26;;;;;;;11.20;1.70;;;;;;;7.25;66.34;97161.22;4989360;28;20054;-65
2020/12/28 10:58:55;;;;;;;7.05;1.77;;;;;;;7.46;66.16;97148.50;4974589;28;20058;-66
2020/12/28 11:01:26;;;;;;;8.13;1.92;;;;;;;7.36;66.30;97148.41;4974068;28;20055;-64
2020/12/28 11:03:56;;;;;;;13.80;2.25;;;;;;;7.29;65.57;97137.41;4988738;28;20055;-66
2020/12/28 11:06:23;;;;;;;9.68;1.85;;;;;;;7.35;66.25;97138.63;4974410;28;20055;-65
2020/12/28 11:08:51;;;;;;;10.75;1.88;;;;;;;7.30;65.67;97136.25;4973684;28;20043;-67
2020/12/28 11:11:22;;;;;;;10.75;2.00;;;;;;;7.43;65.91;97132.81;4974159;28;20046;-68
2020/12/28 11:13:51;;;;;;;10.70;1.90;;;;;;;7.42;65.58;97131.28;4957059;28;20057;-66
2020/12/28 11:16:26;;;;;;;7.00;1.85;;;;;;;7.21;66.55;97139.31;4988263;28;20058;-66
2020/12/28 11:18:54;;;;;;;7.93;1.80;;;;;;;7.29;66.67;97120.97;4974237;28;20066;-64
2020/12/28 11:21:21;;;;;;;10.63;2.45;;;;;;;7.38;66.01;97124.97;4974430;28;20047;-65
2020/12/28 11:23:58;;;;;;;11.35;2.50;;;;;;;7.32;65.82;97123.72;4974017;28;20073;-66
2020/12/28 11:26:30;;;;;;;11.80;1.95;;;;;;;7.26;66.27;97114.31;4973550;28;20058;-67
2020/12/28 11:28:57;;;;;;;12.02;2.10;;;;;;;7.13;66.46;97128.69;4973820;28;20057;-67
2020/12/28 11:31:24;;;;;;;8.90;1.88;;;;;;;7.38;66.34;97129.66;4973728;28;20064;-66
2020/12/28 11:33:52;;;;;;;11.05;2.22;;;;;;;7.35;66.27;97114.78;4973675;28;20058;-67
2020/12/28 11:36:19;;;;;;;11.00;2.20;;;;;;;7.51;66.67;97112.56;4973773;28;20054;-64
2020/12/28 11:38:47;;;;;;;9.15;2.22;;;;;;;7.69;65.42;97098.97;4973697;28;20375;-66
2020/12/28 11:41:14;;;;;;;9.98;1.90;;;;;;;7.22;66.22;97085.38;4973821;28;20043;-65
2020/12/28 11:43:45;;;;;;;15.52;2.40;;;;;;;7.34;66.29;97071.38;4973851;28;20062;-63
2020/12/28 11:46:12;;;;;;;13.75;2.33;;;;;;;7.51;66.28;97079.72;4974103;28;20067;-65
2020/12/28 11:48:40;;;;;;;15.23;2.78;;;;;;;7.36;66.31;97072.53;4973169;28;20051;-64
2020/12/28 11:51:08;;;;;;;12.77;2.28;;;;;;;7.33;66.51;97084.25;4973066;28;20544;-65
2020/12/28 11:53:36;;;;;;;12.32;2.03;;;;;;;7.62;66.47;97082.47;4973502;28;20046;-71
2020/12/28 11:56:04;;;;;;;13.65;2.50;;;;;;;7.75;65.10;97073.59;4973117;28;20051;-66
2020/12/28 11:58:34;;;;;;;10.95;1.92;;;;;;;7.83;64.79;97075.19;4972857;28;20058;-67
2020/12/28 12:01:03;;;;;;;10.95;1.80;;;;;;;7.62;65.16;97058.63;4973322;28;20062;-67
2020/12/28 12:03:32;;;;;;;10.23;1.88;;;;;;;7.59;65.75;97047.66;4973042;28;20510;-65
2020/12/28 12:10:22;;;;;;;10.30;2.03;;;;;;;7.62;65.36;97035.94;4973473;28;20478;-66
2020/12/28 12:12:49;;;;;;;12.18;2.10;;;;;;;7.64;65.42;97019.91;4973643;28;20055;-65
2020/12/28 12:15:16;;;;;;;17.15;2.60;;;;;;;7.59;65.46;97014.78;4973489;28;20062;-66
2020/12/28 12:17:43;;;;;;;14.77;2.83;;;;;;;7.52;65.60;97021.03;4973283;28;20506;-67
2020/12/28 12:20:10;;;;;;;11.63;2.28;;;;;;;7.32;66.07;97016.22;4973214;28;20495;-65
2020/12/28 12:22:43;;;;;;;9.98;3.42;;;;;;;7.45;65.75;97012.78;4987745;28;20047;-65
2020/12/28 12:25:12;;;;;;;12.25;2.70;;;;;;;7.44;65.77;97002.22;4973746;28;20069;-66
2020/12/28 12:27:39;;;;;;;13.50;2.47;;;;;;;7.47;66.15;97001.44;4973245;28;20054;-66
2020/12/28 12:30:12;;;;;;;15.18;4.00;;;;;;;7.49;66.09;96999.91;4973364;28;20513;-66
2020/12/28 12:32:39;;;;;;;17.42;5.38;;;;;;;7.41;65.79;96983.81;4972618;28;20051;-66